首页
METAR-TAF:

METAR-TAF

机场 :

Lahaina, 夏威夷州, 美国

纬度: 21-01N, 经度: 156-38W, 海拔: 40米

METAR: 丢失

时间: 18:19 (04:19 UTC)

预报

该预报发布于2小时和18分钟前的02:01 UTC
预报有效从15日的 02点(UTC)到 15日的 24点(UTC)
风速14节,风向东转东北
能見度: 10公里
少量云层高于2500英尺
多云层高于5000英尺
从 15日的 0600点(UTC)
风速11节,风向东北
能見度: 10公里
多云层高于5000英尺
附近有阵雨
从 15日的 2000点(UTC)
风速15节,风向东北
能見度: 10公里
少量云层高于3000英尺
多云层高于5000英尺

TAF: PHJH 150201Z 1502/1524 06014KT P6SM FEW025 BKN050 FM150600 05011KT P6SM VCSH BKN050 FM152000 05015KT P6SM FEW030 BKN050 AMD NOT SKED

超过4000个机场的气象观测和天气预报(METAR&TAF报告)。

可查询的气象台以黄色和红色小点在地图上表示。

将鼠标移到小点上方,可查看气象台名称。

然后点击查看天气观测和预报。

如需切换地图:点击带黑十字的绿色按钮放大地图;点击带横线的绿色按钮缩小地图;或者点击绿色箭头查看邻近地区的地图。


METAR-TAF: